sensor_id;sensor_type;location;lat;lon;timestamp;P1;durP1;ratioP1;P2;durP2;ratioP2
75285;SDS011;63879;46.064;14.532;2022-11-21T07:00:55;27.45;;;10.18;;
75285;SDS011;63879;46.064;14.532;2022-11-21T07:03:20;34.13;;;10.77;;
75285;SDS011;63879;46.064;14.532;2022-11-21T07:05:46;30.95;;;11.45;;
75285;SDS011;63879;46.064;14.532;2022-11-21T07:08:12;33.03;;;11.20;;
75285;SDS011;63879;46.064;14.532;2022-11-21T07:10:38;31.92;;;11.18;;
75285;SDS011;63879;46.064;14.532;2022-11-21T07:13:03;32.15;;;10.85;;
75285;SDS011;63879;46.064;14.532;2022-11-21T07:15:51;37.85;;;10.43;;
75285;SDS011;63879;46.064;14.532;2022-11-21T07:18:18;29.30;;;10.52;;
75285;SDS011;63879;46.064;14.532;2022-11-21T07:20:44;27.60;;;10.18;;
75285;SDS011;63879;46.064;14.532;2022-11-21T07:23:10;35.30;;;11.38;;
75285;SDS011;63879;46.064;14.532;2022-11-21T07:25:36;38.20;;;13.15;;
75285;SDS011;63879;46.064;14.532;2022-11-21T07:28:03;31.23;;;11.50;;
75285;SDS011;63879;46.064;14.532;2022-11-21T07:30:29;34.35;;;13.38;;
75285;SDS011;63879;46.064;14.532;2022-11-21T07:32:54;32.73;;;12.73;;
75285;SDS011;63879;46.064;14.532;2022-11-21T07:35:20;34.50;;;12.70;;
75285;SDS011;63879;46.064;14.532;2022-11-21T07:37:46;33.67;;;13.27;;
75285;SDS011;63879;46.064;14.532;2022-11-21T07:40:11;40.10;;;12.83;;
75285;SDS011;63879;46.064;14.532;2022-11-21T07:42:37;35.67;;;13.10;;
75285;SDS011;63879;46.064;14.532;2022-11-21T07:45:02;31.40;;;10.03;;
75285;SDS011;63879;46.064;14.532;2022-11-21T07:47:28;29.17;;;11.75;;
75285;SDS011;63879;46.064;14.532;2022-11-21T07:52:24;28.48;;;10.75;;
75285;SDS011;63879;46.064;14.532;2022-11-21T07:54:49;24.02;;;9.88;;
75285;SDS011;63879;46.064;14.532;2022-11-21T07:57:15;28.27;;;10.00;;
75285;SDS011;63879;46.064;14.532;2022-11-21T07:59:40;27.98;;;11.15;;
75285;SDS011;63879;46.064;14.532;2022-11-21T08:02:06;27.05;;;9.98;;
75285;SDS011;63879;46.064;14.532;2022-11-21T08:04:31;23.60;;;10.18;;
75285;SDS011;63879;46.064;14.532;2022-11-21T08:06:57;22.67;;;10.00;;
75285;SDS011;63879;46.064;14.532;2022-11-21T08:09:26;24.43;;;10.77;;
75285;SDS011;63879;46.064;14.532;2022-11-21T08:11:52;24.00;;;10.23;;
75285;SDS011;63879;46.064;14.532;2022-11-21T08:14:17;25.20;;;10.60;;
75285;SDS011;63879;46.064;14.532;2022-11-21T08:16:43;25.50;;;11.43;;
75285;SDS011;63879;46.064;14.532;2022-11-21T08:19:08;28.23;;;11.65;;
75285;SDS011;63879;46.064;14.532;2022-11-21T08:21:33;26.50;;;11.33;;
75285;SDS011;63879;46.064;14.532;2022-11-21T08:23:59;23.10;;;10.37;;
75285;SDS011;63879;46.064;14.532;2022-11-21T08:26:24;24.42;;;10.50;;
75285;SDS011;63879;46.064;14.532;2022-11-21T08:28:49;27.08;;;11.73;;
75285;SDS011;63879;46.064;14.532;2022-11-21T08:31:15;28.13;;;11.98;;
75285;SDS011;63879;46.064;14.532;2022-11-21T08:33:40;26.55;;;11.40;;
75285;SDS011;63879;46.064;14.532;2022-11-21T08:36:06;24.67;;;11.10;;
75285;SDS011;63879;46.064;14.532;2022-11-21T08:38:31;30.80;;;12.50;;
75285;SDS011;63879;46.064;14.532;2022-11-21T08:40:57;30.30;;;11.70;;
75285;SDS011;63879;46.064;14.532;2022-11-21T08:43:41;31.42;;;12.52;;
75285;SDS011;63879;46.064;14.532;2022-11-21T08:46:06;28.70;;;12.25;;
75285;SDS011;63879;46.064;14.532;2022-11-21T08:48:32;25.27;;;10.13;;
75285;SDS011;63879;46.064;14.532;2022-11-21T08:50:57;23.63;;;10.32;;
75285;SDS011;63879;46.064;14.532;2022-11-21T08:53:23;21.15;;;9.30;;
75285;SDS011;63879;46.064;14.532;2022-11-21T08:55:48;26.57;;;11.00;;
75285;SDS011;63879;46.064;14.532;2022-11-21T08:58:13;22.33;;;9.73;;
75285;SDS011;63879;46.064;14.532;2022-11-21T09:00:39;26.65;;;10.07;;
75285;SDS011;63879;46.064;14.532;2022-11-21T09:03:04;23.27;;;9.63;;
75285;SDS011;63879;46.064;14.532;2022-11-21T09:05:30;23.75;;;9.20;;
75285;SDS011;63879;46.064;14.532;2022-11-21T09:07:56;23.52;;;9.68;;
75285;SDS011;63879;46.064;14.532;2022-11-21T09:10:22;26.88;;;10.05;;
75285;SDS011;63879;46.064;14.532;2022-11-21T09:12:48;25.55;;;10.52;;
75285;SDS011;63879;46.064;14.532;2022-11-21T09:15:14;25.65;;;11.02;;
75285;SDS011;63879;46.064;14.532;2022-11-21T09:18:01;21.70;;;9.23;;
75285;SDS011;63879;46.064;14.532;2022-11-21T09:20:31;23.80;;;9.80;;
75285;SDS011;63879;46.064;14.532;2022-11-21T09:23:02;21.05;;;9.50;;
75285;SDS011;63879;46.064;14.532;2022-11-21T09:25:30;29.95;;;9.50;;
75285;SDS011;63879;46.064;14.532;2022-11-21T09:28:00;20.58;;;9.48;;
75285;SDS011;63879;46.064;14.532;2022-11-21T09:30:26;20.40;;;7.82;;
75285;SDS011;63879;46.064;14.532;2022-11-21T09:32:51;19.17;;;8.80;;
75285;SDS011;63879;46.064;14.532;2022-11-21T09:35:17;21.92;;;9.40;;
75285;SDS011;63879;46.064;14.532;2022-11-21T09:37:42;21.67;;;9.43;;
75285;SDS011;63879;46.064;14.532;2022-11-21T09:40:11;23.87;;;10.43;;
75285;SDS011;63879;46.064;14.532;2022-11-21T09:45:49;20.85;;;9.88;;
75285;SDS011;63879;46.064;14.532;2022-11-21T09:51:01;21.15;;;9.48;;
75285;SDS011;63879;46.064;14.532;2022-11-21T09:53:31;20.75;;;9.68;;
75285;SDS011;63879;46.064;14.532;2022-11-21T09:56:03;18.55;;;8.80;;
75285;SDS011;63879;46.064;14.532;2022-11-21T09:58:36;17.58;;;8.88;;
75285;SDS011;63879;46.064;14.532;2022-11-21T10:01:04;19.30;;;8.68;;
75285;SDS011;63879;46.064;14.532;2022-11-21T10:03:35;21.58;;;9.52;;
75285;SDS011;63879;46.064;14.532;2022-11-21T10:14:01;21.40;;;9.10;;
75285;SDS011;63879;46.064;14.532;2022-11-21T10:16:43;20.83;;;9.32;;
75285;SDS011;63879;46.064;14.532;2022-11-21T10:32:07;21.40;;;9.32;;
75285;SDS011;63879;46.064;14.532;2022-11-21T10:34:35;16.48;;;8.10;;
75285;SDS011;63879;46.064;14.532;2022-11-21T10:37:06;19.13;;;9.05;;
75285;SDS011;63879;46.064;14.532;2022-11-21T10:39:39;15.98;;;8.07;;
75285;SDS011;63879;46.064;14.532;2022-11-21T10:42:14;16.77;;;9.25;;
75285;SDS011;63879;46.064;14.532;2022-11-21T10:44:41;19.48;;;9.15;;
75285;SDS011;63879;46.064;14.532;2022-11-21T10:47:30;17.80;;;8.80;;
75285;SDS011;63879;46.064;14.532;2022-11-21T10:49:59;17.20;;;8.32;;
75285;SDS011;63879;46.064;14.532;2022-11-21T10:52:30;21.40;;;9.30;;
75285;SDS011;63879;46.064;14.532;2022-11-21T10:57:30;20.05;;;9.70;;
75285;SDS011;63879;46.064;14.532;2022-11-21T11:02:36;22.75;;;10.73;;
75285;SDS011;63879;46.064;14.532;2022-11-21T11:07:40;20.67;;;9.60;;
75285;SDS011;63879;46.064;14.532;2022-11-21T11:10:40;20.63;;;9.45;;
75285;SDS011;63879;46.064;14.532;2022-11-21T11:13:11;22.55;;;10.32;;
75285;SDS011;63879;46.064;14.532;2022-11-21T11:18:34;22.63;;;11.25;;
75285;SDS011;63879;46.064;14.532;2022-11-21T11:23:51;27.80;;;11.90;;
75285;SDS011;63879;46.064;14.532;2022-11-21T11:26:22;20.83;;;10.60;;
75285;SDS011;63879;46.064;14.532;2022-11-21T11:28:51;25.02;;;11.35;;
75285;SDS011;63879;46.064;14.532;2022-11-21T11:31:18;24.98;;;11.48;;
75285;SDS011;63879;46.064;14.532;2022-11-21T11:36:21;23.33;;;10.85;;
75285;SDS011;63879;46.064;14.532;2022-11-21T11:38:57;23.48;;;11.20;;
75285;SDS011;63879;46.064;14.532;2022-11-21T11:41:27;22.92;;;11.50;;
75285;SDS011;63879;46.064;14.532;2022-11-21T11:44:18;26.77;;;12.95;;
75285;SDS011;63879;46.064;14.532;2022-11-21T11:47:13;28.13;;;13.18;;
75285;SDS011;63879;46.064;14.532;2022-11-21T11:49:57;28.80;;;14.48;;
75285;SDS011;63879;46.064;14.532;2022-11-21T11:58:05;36.10;;;14.60;;
75285;SDS011;63879;46.064;14.532;2022-11-21T12:00:44;30.33;;;14.00;;
75285;SDS011;63879;46.064;14.532;2022-11-21T12:03:23;28.55;;;14.77;;
75285;SDS011;63879;46.064;14.532;2022-11-21T12:05:55;29.83;;;14.88;;
75285;SDS011;63879;46.064;14.532;2022-11-21T12:08:40;28.92;;;16.02;;
75285;SDS011;63879;46.064;14.532;2022-11-21T12:17:24;32.30;;;15.18;;
75285;SDS011;63879;46.064;14.532;2022-11-21T12:19:54;32.45;;;15.93;;
75285;SDS011;63879;46.064;14.532;2022-11-21T12:22:20;33.95;;;15.90;;
75285;SDS011;63879;46.064;14.532;2022-11-21T12:24:46;33.70;;;17.08;;
75285;SDS011;63879;46.064;14.532;2022-11-21T12:27:24;31.67;;;16.37;;
75285;SDS011;63879;46.064;14.532;2022-11-21T12:35:24;33.30;;;15.60;;
75285;SDS011;63879;46.064;14.532;2022-11-21T12:40:40;30.90;;;15.68;;
75285;SDS011;63879;46.064;14.532;2022-11-21T12:49:05;36.08;;;16.33;;
75285;SDS011;63879;46.064;14.532;2022-11-21T13:13:43;36.83;;;17.30;;
75285;SDS011;63879;46.064;14.532;2022-11-21T13:16:10;39.63;;;18.73;;
75285;SDS011;63879;46.064;14.532;2022-11-21T13:18:42;35.05;;;16.65;;
75285;SDS011;63879;46.064;14.532;2022-11-21T13:24:12;32.83;;;16.15;;
75285;SDS011;63879;46.064;14.532;2022-11-21T13:27:21;32.97;;;17.10;;
75285;SDS011;63879;46.064;14.532;2022-11-21T13:32:38;35.28;;;15.43;;
75285;SDS011;63879;46.064;14.532;2022-11-21T13:43:33;30.90;;;16.30;;
75285;SDS011;63879;46.064;14.532;2022-11-21T13:45:45;31.45;;;14.20;;
75285;SDS011;63879;46.064;14.532;2022-11-21T14:10:56;36.50;;;17.55;;
75285;SDS011;63879;46.064;14.532;2022-11-21T14:13:31;40.70;;;17.75;;
75285;SDS011;63879;46.064;14.532;2022-11-21T14:18:42;41.33;;;19.15;;
75285;SDS011;63879;46.064;14.532;2022-11-21T14:21:30;43.90;;;18.63;;
75285;SDS011;63879;46.064;14.532;2022-11-21T14:23:56;43.17;;;18.98;;
75285;SDS011;63879;46.064;14.532;2022-11-21T14:26:22;40.30;;;18.75;;
75285;SDS011;63879;46.064;14.532;2022-11-21T14:28:49;44.47;;;19.30;;
75285;SDS011;63879;46.064;14.532;2022-11-21T14:31:15;44.75;;;19.45;;
75285;SDS011;63879;46.064;14.532;2022-11-21T14:33:41;40.85;;;19.25;;
75285;SDS011;63879;46.064;14.532;2022-11-21T14:36:40;41.10;;;17.77;;
75285;SDS011;63879;46.064;14.532;2022-11-21T14:39:00;43.08;;;19.05;;
75285;SDS011;63879;46.064;14.532;2022-11-21T14:41:31;42.80;;;18.67;;
75285;SDS011;63879;46.064;14.532;2022-11-21T14:46:22;40.97;;;18.47;;
75285;SDS011;63879;46.064;14.532;2022-11-21T14:48:51;44.92;;;18.77;;
75285;SDS011;63879;46.064;14.532;2022-11-21T14:51:20;39.50;;;16.92;;
75285;SDS011;63879;46.064;14.532;2022-11-21T14:53:47;44.75;;;19.63;;
75285;SDS011;63879;46.064;14.532;2022-11-21T14:56:26;43.80;;;20.13;;
75285;SDS011;63879;46.064;14.532;2022-11-21T14:58:55;42.13;;;17.88;;
75285;SDS011;63879;46.064;14.532;2022-11-21T15:01:26;41.25;;;17.35;;
75285;SDS011;63879;46.064;14.532;2022-11-21T15:04:03;43.58;;;19.02;;
75285;SDS011;63879;46.064;14.532;2022-11-21T15:06:30;43.35;;;18.63;;
75285;SDS011;63879;46.064;14.532;2022-11-21T15:09:03;40.45;;;18.45;;
75285;SDS011;63879;46.064;14.532;2022-11-21T15:11:36;41.97;;;18.23;;
75285;SDS011;63879;46.064;14.532;2022-11-21T15:14:05;43.65;;;18.25;;
75285;SDS011;63879;46.064;14.532;2022-11-21T15:16:54;39.88;;;17.40;;
75285;SDS011;63879;46.064;14.532;2022-11-21T15:19:25;39.00;;;17.80;;
75285;SDS011;63879;46.064;14.532;2022-11-21T15:21:53;38.83;;;17.42;;
75285;SDS011;63879;46.064;14.532;2022-11-21T15:26:57;39.10;;;16.73;;
75285;SDS011;63879;46.064;14.532;2022-11-21T15:29:23;34.92;;;16.05;;
75285;SDS011;63879;46.064;14.532;2022-11-21T15:32:05;40.83;;;16.50;;
75285;SDS011;63879;46.064;14.532;2022-11-21T15:34:34;35.63;;;16.08;;
75285;SDS011;63879;46.064;14.532;2022-11-21T15:37:03;34.47;;;15.18;;
75285;SDS011;63879;46.064;14.532;2022-11-21T15:39:43;38.50;;;16.98;;
75285;SDS011;63879;46.064;14.532;2022-11-21T15:45:00;29.00;;;14.15;;
75285;SDS011;63879;46.064;14.532;2022-11-21T15:47:25;34.38;;;15.45;;
75285;SDS011;63879;46.064;14.532;2022-11-21T15:49:51;34.20;;;16.00;;
75285;SDS011;63879;46.064;14.532;2022-11-21T15:52:16;32.42;;;15.48;;
75285;SDS011;63879;46.064;14.532;2022-11-21T15:54:42;34.67;;;14.18;;
75285;SDS011;63879;46.064;14.532;2022-11-21T15:57:08;28.25;;;12.85;;
75285;SDS011;63879;46.064;14.532;2022-11-21T15:59:33;30.85;;;13.02;;
75285;SDS011;63879;46.064;14.532;2022-11-21T16:02:02;30.73;;;13.52;;
75285;SDS011;63879;46.064;14.532;2022-11-21T16:04:27;28.48;;;13.18;;
75285;SDS011;63879;46.064;14.532;2022-11-21T16:06:53;30.77;;;12.37;;
75285;SDS011;63879;46.064;14.532;2022-11-21T16:09:18;30.02;;;13.80;;
75285;SDS011;63879;46.064;14.532;2022-11-21T16:11:44;29.38;;;13.27;;
75285;SDS011;63879;46.064;14.532;2022-11-21T16:14:13;28.13;;;13.23;;
75285;SDS011;63879;46.064;14.532;2022-11-21T16:16:40;27.23;;;12.50;;
75285;SDS011;63879;46.064;14.532;2022-11-21T16:19:07;29.13;;;13.00;;
75285;SDS011;63879;46.064;14.532;2022-11-21T16:21:34;28.85;;;12.13;;
75285;SDS011;63879;46.064;14.532;2022-11-21T16:24:00;26.17;;;12.25;;
75285;SDS011;63879;46.064;14.532;2022-11-21T16:26:25;25.58;;;13.13;;
75285;SDS011;63879;46.064;14.532;2022-11-21T16:28:54;26.27;;;12.27;;
75285;SDS011;63879;46.064;14.532;2022-11-21T16:31:21;29.23;;;12.68;;
75285;SDS011;63879;46.064;14.532;2022-11-21T16:33:48;27.13;;;12.50;;
75285;SDS011;63879;46.064;14.532;2022-11-21T16:36:18;27.55;;;11.95;;
75285;SDS011;63879;46.064;14.532;2022-11-21T16:38:47;24.90;;;12.45;;
75285;SDS011;63879;46.064;14.532;2022-11-21T16:41:13;27.02;;;13.93;;
75285;SDS011;63879;46.064;14.532;2022-11-21T16:43:44;41.33;;;18.75;;
75285;SDS011;63879;46.064;14.532;2022-11-21T16:46:11;39.80;;;16.63;;
75285;SDS011;63879;46.064;14.532;2022-11-21T16:48:37;42.45;;;17.48;;
75285;SDS011;63879;46.064;14.532;2022-11-21T16:51:12;39.28;;;18.05;;
75285;SDS011;63879;46.064;14.532;2022-11-21T16:53:38;41.78;;;16.50;;
75285;SDS011;63879;46.064;14.532;2022-11-21T16:56:04;35.75;;;16.88;;
75285;SDS011;63879;46.064;14.532;2022-11-21T16:58:30;38.10;;;16.13;;
75285;SDS011;63879;46.064;14.532;2022-11-21T17:00:56;41.85;;;17.98;;
75285;SDS011;63879;46.064;14.532;2022-11-21T17:03:21;38.05;;;16.88;;
75285;SDS011;63879;46.064;14.532;2022-11-21T17:05:58;41.08;;;17.35;;
75285;SDS011;63879;46.064;14.532;2022-11-21T17:08:24;45.17;;;19.27;;
75285;SDS011;63879;46.064;14.532;2022-11-21T17:10:51;42.50;;;18.10;;
75285;SDS011;63879;46.064;14.532;2022-11-21T17:13:17;39.13;;;17.27;;
75285;SDS011;63879;46.064;14.532;2022-11-21T17:15:42;41.92;;;16.48;;
75285;SDS011;63879;46.064;14.532;2022-11-21T17:18:08;43.22;;;18.42;;
75285;SDS011;63879;46.064;14.532;2022-11-21T17:20:34;40.60;;;17.45;;
75285;SDS011;63879;46.064;14.532;2022-11-21T17:22:59;39.90;;;17.63;;
75285;SDS011;63879;46.064;14.532;2022-11-21T17:25:25;40.53;;;17.27;;
75285;SDS011;63879;46.064;14.532;2022-11-21T17:27:50;41.00;;;17.83;;
75285;SDS011;63879;46.064;14.532;2022-11-21T17:30:16;42.38;;;17.73;;
75285;SDS011;63879;46.064;14.532;2022-11-21T17:32:41;38.83;;;17.58;;
75285;SDS011;63879;46.064;14.532;2022-11-21T17:35:06;50.17;;;20.23;;
75285;SDS011;63879;46.064;14.532;2022-11-21T17:37:32;40.40;;;16.98;;
75285;SDS011;63879;46.064;14.532;2022-11-21T17:39:57;34.23;;;15.77;;
75285;SDS011;63879;46.064;14.532;2022-11-21T17:42:23;39.17;;;17.20;;
75285;SDS011;63879;46.064;14.532;2022-11-21T17:44:50;42.75;;;17.88;;
75285;SDS011;63879;46.064;14.532;2022-11-21T17:47:16;45.40;;;20.27;;
75285;SDS011;63879;46.064;14.532;2022-11-21T17:49:41;42.47;;;18.50;;
75285;SDS011;63879;46.064;14.532;2022-11-21T17:52:07;44.72;;;18.63;;
75285;SDS011;63879;46.064;14.532;2022-11-21T17:54:32;38.70;;;17.50;;
75285;SDS011;63879;46.064;14.532;2022-11-21T17:56:57;37.25;;;16.65;;
75285;SDS011;63879;46.064;14.532;2022-11-21T17:59:24;41.83;;;18.98;;
75285;SDS011;63879;46.064;14.532;2022-11-21T18:01:51;48.35;;;19.35;;
75285;SDS011;63879;46.064;14.532;2022-11-21T18:04:17;42.90;;;18.45;;
75285;SDS011;63879;46.064;14.532;2022-11-21T18:06:42;44.17;;;20.13;;
75285;SDS011;63879;46.064;14.532;2022-11-21T18:09:11;43.13;;;18.52;;
75285;SDS011;63879;46.064;14.532;2022-11-21T18:11:37;45.88;;;19.60;;
75285;SDS011;63879;46.064;14.532;2022-11-21T18:14:05;48.60;;;19.08;;
75285;SDS011;63879;46.064;14.532;2022-11-21T18:16:34;48.05;;;18.27;;
75285;SDS011;63879;46.064;14.532;2022-11-21T18:19:00;48.60;;;19.85;;
75285;SDS011;63879;46.064;14.532;2022-11-21T18:21:29;48.33;;;18.75;;
75285;SDS011;63879;46.064;14.532;2022-11-21T18:23:56;47.28;;;20.15;;
75285;SDS011;63879;46.064;14.532;2022-11-21T18:26:33;47.00;;;18.80;;
75285;SDS011;63879;46.064;14.532;2022-11-21T18:29:00;49.20;;;19.05;;
75285;SDS011;63879;46.064;14.532;2022-11-21T18:31:28;39.95;;;16.58;;
75285;SDS011;63879;46.064;14.532;2022-11-21T18:33:55;47.63;;;20.25;;
75285;SDS011;63879;46.064;14.532;2022-11-21T18:36:21;50.78;;;17.95;;
75285;SDS011;63879;46.064;14.532;2022-11-21T18:38:47;40.90;;;18.48;;
75285;SDS011;63879;46.064;14.532;2022-11-21T18:43:39;46.95;;;19.55;;
75285;SDS011;63879;46.064;14.532;2022-11-21T18:46:09;49.92;;;19.63;;
75285;SDS011;63879;46.064;14.532;2022-11-21T18:48:35;44.88;;;19.73;;
75285;SDS011;63879;46.064;14.532;2022-11-21T18:51:07;48.17;;;19.17;;
75285;SDS011;63879;46.064;14.532;2022-11-21T18:53:36;47.15;;;19.38;;
75285;SDS011;63879;46.064;14.532;2022-11-21T18:56:06;44.17;;;17.88;;
75285;SDS011;63879;46.064;14.532;2022-11-21T18:58:33;40.65;;;18.40;;
75285;SDS011;63879;46.064;14.532;2022-11-21T19:01:00;47.95;;;19.25;;
75285;SDS011;63879;46.064;14.532;2022-11-21T19:03:26;45.35;;;17.75;;
75285;SDS011;63879;46.064;14.532;2022-11-21T19:05:51;43.42;;;18.30;;
75285;SDS011;63879;46.064;14.532;2022-11-21T19:08:16;47.63;;;19.10;;
75285;SDS011;63879;46.064;14.532;2022-11-21T19:10:42;40.77;;;18.03;;
75285;SDS011;63879;46.064;14.532;2022-11-21T19:13:07;49.60;;;18.63;;
75285;SDS011;63879;46.064;14.532;2022-11-21T19:15:33;45.55;;;19.00;;
75285;SDS011;63879;46.064;14.532;2022-11-21T19:18:02;47.28;;;18.38;;
75285;SDS011;63879;46.064;14.532;2022-11-21T19:20:29;49.58;;;20.15;;
75285;SDS011;63879;46.064;14.532;2022-11-21T19:22:54;49.22;;;19.92;;
75285;SDS011;63879;46.064;14.532;2022-11-21T19:25:20;50.03;;;18.80;;
75285;SDS011;63879;46.064;14.532;2022-11-21T19:27:45;48.90;;;18.83;;
75285;SDS011;63879;46.064;14.532;2022-11-21T19:30:10;44.83;;;18.43;;
75285;SDS011;63879;46.064;14.532;2022-11-21T19:32:36;52.13;;;20.63;;
75285;SDS011;63879;46.064;14.532;2022-11-21T19:35:02;50.33;;;19.08;;
75285;SDS011;63879;46.064;14.532;2022-11-21T19:37:27;49.92;;;19.67;;
75285;SDS011;63879;46.064;14.532;2022-11-21T19:39:53;56.72;;;19.33;;
75285;SDS011;63879;46.064;14.532;2022-11-21T19:42:18;53.15;;;20.85;;
75285;SDS011;63879;46.064;14.532;2022-11-21T19:44:43;51.43;;;20.00;;
75285;SDS011;63879;46.064;14.532;2022-11-21T19:47:09;56.43;;;19.63;;
75285;SDS011;63879;46.064;14.532;2022-11-21T19:49:35;50.22;;;20.63;;
75285;SDS011;63879;46.064;14.532;2022-11-21T19:52:01;55.22;;;20.05;;
75285;SDS011;63879;46.064;14.532;2022-11-21T19:54:26;47.97;;;17.95;;
75285;SDS011;63879;46.064;14.532;2022-11-21T19:56:51;49.83;;;20.03;;
75285;SDS011;63879;46.064;14.532;2022-11-21T19:59:17;49.55;;;18.13;;
75285;SDS011;63879;46.064;14.532;2022-11-21T20:01:42;46.72;;;18.02;;
75285;SDS011;63879;46.064;14.532;2022-11-21T20:04:09;50.92;;;19.77;;
75285;SDS011;63879;46.064;14.532;2022-11-21T20:06:36;55.22;;;21.75;;
75285;SDS011;63879;46.064;14.532;2022-11-21T20:09:09;51.58;;;18.50;;
75285;SDS011;63879;46.064;14.532;2022-11-21T20:11:37;53.08;;;21.73;;
75285;SDS011;63879;46.064;14.532;2022-11-21T20:14:04;55.08;;;20.55;;
75285;SDS011;63879;46.064;14.532;2022-11-21T20:16:30;60.53;;;23.95;;
75285;SDS011;63879;46.064;14.532;2022-11-21T20:18:58;50.13;;;19.67;;
75285;SDS011;63879;46.064;14.532;2022-11-21T20:21:25;56.83;;;20.13;;
75285;SDS011;63879;46.064;14.532;2022-11-21T20:23:51;55.05;;;21.77;;
75285;SDS011;63879;46.064;14.532;2022-11-21T20:26:17;53.72;;;20.60;;
75285;SDS011;63879;46.064;14.532;2022-11-21T20:28:44;55.67;;;20.80;;
75285;SDS011;63879;46.064;14.532;2022-11-21T20:31:13;62.80;;;21.50;;
75285;SDS011;63879;46.064;14.532;2022-11-21T20:33:40;61.05;;;21.10;;
75285;SDS011;63879;46.064;14.532;2022-11-21T20:36:08;55.88;;;20.65;;
75285;SDS011;63879;46.064;14.532;2022-11-21T20:38:34;62.60;;;23.33;;
75285;SDS011;63879;46.064;14.532;2022-11-21T20:41:01;60.72;;;22.85;;
75285;SDS011;63879;46.064;14.532;2022-11-21T20:43:27;67.90;;;22.67;;
75285;SDS011;63879;46.064;14.532;2022-11-21T20:45:52;59.65;;;21.63;;
75285;SDS011;63879;46.064;14.532;2022-11-21T20:48:18;57.88;;;21.02;;
75285;SDS011;63879;46.064;14.532;2022-11-21T20:50:50;60.28;;;20.92;;
75285;SDS011;63879;46.064;14.532;2022-11-21T20:53:16;60.45;;;21.98;;
75285;SDS011;63879;46.064;14.532;2022-11-21T20:55:42;59.80;;;22.63;;
75285;SDS011;63879;46.064;14.532;2022-11-21T20:58:07;64.57;;;21.98;;
75285;SDS011;63879;46.064;14.532;2022-11-21T21:00:33;63.65;;;22.73;;
75285;SDS011;63879;46.064;14.532;2022-11-21T21:02:58;59.73;;;22.77;;
75285;SDS011;63879;46.064;14.532;2022-11-21T21:05:23;66.33;;;22.07;;
75285;SDS011;63879;46.064;14.532;2022-11-21T21:07:49;66.30;;;21.92;;
75285;SDS011;63879;46.064;14.532;2022-11-21T21:10:15;59.17;;;23.05;;
75285;SDS011;63879;46.064;14.532;2022-11-21T21:12:41;71.28;;;23.27;;
75285;SDS011;63879;46.064;14.532;2022-11-21T21:15:07;75.33;;;24.63;;
75285;SDS011;63879;46.064;14.532;2022-11-21T21:17:33;63.67;;;22.33;;
75285;SDS011;63879;46.064;14.532;2022-11-21T21:19:59;63.50;;;23.92;;
75285;SDS011;63879;46.064;14.532;2022-11-21T21:22:24;62.83;;;23.17;;
75285;SDS011;63879;46.064;14.532;2022-11-21T21:24:49;65.00;;;22.27;;
75285;SDS011;63879;46.064;14.532;2022-11-21T21:27:15;65.97;;;21.53;;
75285;SDS011;63879;46.064;14.532;2022-11-21T21:29:40;60.77;;;22.43;;
75285;SDS011;63879;46.064;14.532;2022-11-21T21:32:05;62.53;;;22.20;;
75285;SDS011;63879;46.064;14.532;2022-11-21T21:34:32;68.55;;;24.33;;
75285;SDS011;63879;46.064;14.532;2022-11-21T21:36:57;58.43;;;22.00;;
75285;SDS011;63879;46.064;14.532;2022-11-21T21:39:23;74.22;;;24.52;;
75285;SDS011;63879;46.064;14.532;2022-11-21T21:41:49;65.97;;;22.38;;
75285;SDS011;63879;46.064;14.532;2022-11-21T21:44:17;72.32;;;23.67;;
75285;SDS011;63879;46.064;14.532;2022-11-21T21:46:42;69.55;;;24.42;;
75285;SDS011;63879;46.064;14.532;2022-11-21T21:49:08;69.20;;;22.17;;
75285;SDS011;63879;46.064;14.532;2022-11-21T21:51:34;72.88;;;22.95;;
75285;SDS011;63879;46.064;14.532;2022-11-21T21:54:05;66.70;;;21.98;;
75285;SDS011;63879;46.064;14.532;2022-11-21T21:56:31;65.18;;;22.52;;
75285;SDS011;63879;46.064;14.532;2022-11-21T21:58:58;65.43;;;22.38;;
